sensor_id;sensor_type;location;lat;lon;timestamp;P1;durP1;ratioP1;P2;durP2;ratioP2
57889;SDS011;43707;50.184;18.966;2022-09-09T00:00:12;7.70;;;6.90;;
57889;SDS011;43707;50.184;18.966;2022-09-09T00:02:41;8.30;;;7.50;;
57889;SDS011;43707;50.184;18.966;2022-09-09T00:05:19;8.70;;;7.80;;
57889;SDS011;43707;50.184;18.966;2022-09-09T00:07:53;10.60;;;7.80;;
57889;SDS011;43707;50.184;18.966;2022-09-09T00:21:48;7.90;;;6.80;;
57889;SDS011;43707;50.184;18.966;2022-09-09T00:24:27;8.60;;;7.30;;
57889;SDS011;43707;50.184;18.966;2022-09-09T00:27:19;7.10;;;6.40;;
57889;SDS011;43707;50.184;18.966;2022-09-09T00:30:29;6.90;;;6.40;;
57889;SDS011;43707;50.184;18.966;2022-09-09T00:32:46;8.40;;;6.80;;
57889;SDS011;43707;50.184;18.966;2022-09-09T00:37:50;7.00;;;6.40;;
57889;SDS011;43707;50.184;18.966;2022-09-09T00:40:22;7.50;;;6.90;;
57889;SDS011;43707;50.184;18.966;2022-09-09T00:42:47;6.70;;;6.00;;
57889;SDS011;43707;50.184;18.966;2022-09-09T00:45:41;7.70;;;6.60;;
57889;SDS011;43707;50.184;18.966;2022-09-09T00:48:20;6.10;;;5.50;;
57889;SDS011;43707;50.184;18.966;2022-09-09T00:51:33;7.80;;;6.60;;
57889;SDS011;43707;50.184;18.966;2022-09-09T00:56:35;7.60;;;6.90;;
57889;SDS011;43707;50.184;18.966;2022-09-09T00:59:16;9.80;;;7.40;;
57889;SDS011;43707;50.184;18.966;2022-09-09T01:01:53;8.70;;;6.90;;
57889;SDS011;43707;50.184;18.966;2022-09-09T01:04:22;7.30;;;6.40;;
57889;SDS011;43707;50.184;18.966;2022-09-09T01:07:12;8.10;;;6.80;;
57889;SDS011;43707;50.184;18.966;2022-09-09T01:09:56;6.70;;;6.20;;
57889;SDS011;43707;50.184;18.966;2022-09-09T01:12:28;6.30;;;5.80;;
57889;SDS011;43707;50.184;18.966;2022-09-09T01:17:46;7.00;;;6.40;;
57889;SDS011;43707;50.184;18.966;2022-09-09T01:20:31;6.90;;;6.20;;
57889;SDS011;43707;50.184;18.966;2022-09-09T01:28:45;7.20;;;6.50;;
57889;SDS011;43707;50.184;18.966;2022-09-09T01:31:14;7.50;;;6.20;;
57889;SDS011;43707;50.184;18.966;2022-09-09T01:33:43;6.60;;;6.00;;
57889;SDS011;43707;50.184;18.966;2022-09-09T01:36:23;6.10;;;5.60;;
57889;SDS011;43707;50.184;18.966;2022-09-09T01:39:00;6.20;;;5.50;;
57889;SDS011;43707;50.184;18.966;2022-09-09T01:41:26;6.50;;;5.90;;
57889;SDS011;43707;50.184;18.966;2022-09-09T01:43:52;5.50;;;5.10;;
57889;SDS011;43707;50.184;18.966;2022-09-09T01:46:18;6.10;;;5.60;;
57889;SDS011;43707;50.184;18.966;2022-09-09T01:48:46;6.40;;;5.30;;
57889;SDS011;43707;50.184;18.966;2022-09-09T01:51:12;6.20;;;5.70;;
57889;SDS011;43707;50.184;18.966;2022-09-09T01:53:38;6.60;;;5.70;;
57889;SDS011;43707;50.184;18.966;2022-09-09T01:56:08;6.30;;;5.60;;
57889;SDS011;43707;50.184;18.966;2022-09-09T02:04:10;8.80;;;5.10;;
57889;SDS011;43707;50.184;18.966;2022-09-09T02:06:48;5.40;;;4.90;;
57889;SDS011;43707;50.184;18.966;2022-09-09T02:09:18;5.80;;;5.30;;
57889;SDS011;43707;50.184;18.966;2022-09-09T02:11:48;5.30;;;4.80;;
57889;SDS011;43707;50.184;18.966;2022-09-09T02:14:25;5.80;;;5.20;;
57889;SDS011;43707;50.184;18.966;2022-09-09T02:16:59;7.50;;;4.40;;
57889;SDS011;43707;50.184;18.966;2022-09-09T02:19:39;9.60;;;4.60;;
57889;SDS011;43707;50.184;18.966;2022-09-09T02:22:10;5.00;;;4.60;;
57889;SDS011;43707;50.184;18.966;2022-09-09T02:24:37;5.50;;;5.10;;
57889;SDS011;43707;50.184;18.966;2022-09-09T02:27:04;6.00;;;5.50;;
57889;SDS011;43707;50.184;18.966;2022-09-09T02:29:39;5.30;;;4.50;;
57889;SDS011;43707;50.184;18.966;2022-09-09T02:32:07;6.00;;;5.50;;
57889;SDS011;43707;50.184;18.966;2022-09-09T02:34:36;5.30;;;4.90;;
57889;SDS011;43707;50.184;18.966;2022-09-09T02:37:06;5.10;;;4.70;;
57889;SDS011;43707;50.184;18.966;2022-09-09T02:39:33;5.70;;;5.20;;
57889;SDS011;43707;50.184;18.966;2022-09-09T02:41:58;7.00;;;6.30;;
57889;SDS011;43707;50.184;18.966;2022-09-09T02:44:24;6.80;;;6.20;;
57889;SDS011;43707;50.184;18.966;2022-09-09T02:47:12;6.80;;;6.30;;
57889;SDS011;43707;50.184;18.966;2022-09-09T02:55:17;6.80;;;6.10;;
57889;SDS011;43707;50.184;18.966;2022-09-09T02:57:43;6.70;;;6.20;;
57889;SDS011;43707;50.184;18.966;2022-09-09T03:00:12;6.20;;;5.70;;
57889;SDS011;43707;50.184;18.966;2022-09-09T03:02:37;7.00;;;5.00;;
57889;SDS011;43707;50.184;18.966;2022-09-09T03:05:04;7.40;;;5.20;;
57889;SDS011;43707;50.184;18.966;2022-09-09T03:07:30;6.80;;;6.20;;
57889;SDS011;43707;50.184;18.966;2022-09-09T03:09:55;6.50;;;6.00;;
57889;SDS011;43707;50.184;18.966;2022-09-09T03:12:21;6.00;;;5.40;;
57889;SDS011;43707;50.184;18.966;2022-09-09T03:14:46;9.00;;;7.30;;
57889;SDS011;43707;50.184;18.966;2022-09-09T03:17:12;6.30;;;5.80;;
57889;SDS011;43707;50.184;18.966;2022-09-09T03:19:37;7.90;;;7.20;;
57889;SDS011;43707;50.184;18.966;2022-09-09T03:22:03;6.90;;;6.40;;
57889;SDS011;43707;50.184;18.966;2022-09-09T03:24:29;7.00;;;6.40;;
57889;SDS011;43707;50.184;18.966;2022-09-09T03:26:55;8.90;;;6.10;;
57889;SDS011;43707;50.184;18.966;2022-09-09T03:29:21;6.20;;;5.70;;
57889;SDS011;43707;50.184;18.966;2022-09-09T03:31:46;6.00;;;5.60;;
57889;SDS011;43707;50.184;18.966;2022-09-09T03:34:12;6.30;;;5.70;;
57889;SDS011;43707;50.184;18.966;2022-09-09T03:36:38;9.70;;;7.20;;
57889;SDS011;43707;50.184;18.966;2022-09-09T03:39:05;6.60;;;6.00;;
57889;SDS011;43707;50.184;18.966;2022-09-09T03:41:30;6.30;;;5.80;;
57889;SDS011;43707;50.184;18.966;2022-09-09T03:43:56;6.60;;;6.00;;
57889;SDS011;43707;50.184;18.966;2022-09-09T03:46:22;8.00;;;7.30;;
57889;SDS011;43707;50.184;18.966;2022-09-09T03:48:49;7.60;;;6.60;;
57889;SDS011;43707;50.184;18.966;2022-09-09T03:51:14;7.70;;;6.70;;
57889;SDS011;43707;50.184;18.966;2022-09-09T03:53:41;9.50;;;7.10;;
57889;SDS011;43707;50.184;18.966;2022-09-09T03:56:08;8.50;;;7.70;;
57889;SDS011;43707;50.184;18.966;2022-09-09T03:58:34;8.10;;;7.40;;
57889;SDS011;43707;50.184;18.966;2022-09-09T04:01:02;9.40;;;8.30;;
57889;SDS011;43707;50.184;18.966;2022-09-09T04:03:29;11.80;;;8.30;;
57889;SDS011;43707;50.184;18.966;2022-09-09T04:05:56;17.20;;;10.80;;
57889;SDS011;43707;50.184;18.966;2022-09-09T04:08:23;9.30;;;8.40;;
57889;SDS011;43707;50.184;18.966;2022-09-09T04:10:52;10.50;;;9.50;;
57889;SDS011;43707;50.184;18.966;2022-09-09T04:13:18;9.40;;;8.50;;
57889;SDS011;43707;50.184;18.966;2022-09-09T04:15:50;15.90;;;9.30;;
57889;SDS011;43707;50.184;18.966;2022-09-09T04:18:17;9.80;;;8.80;;
57889;SDS011;43707;50.184;18.966;2022-09-09T04:20:42;8.20;;;7.40;;
57889;SDS011;43707;50.184;18.966;2022-09-09T04:23:08;8.20;;;7.50;;
57889;SDS011;43707;50.184;18.966;2022-09-09T04:25:34;8.80;;;7.30;;
57889;SDS011;43707;50.184;18.966;2022-09-09T04:27:59;7.40;;;6.70;;
57889;SDS011;43707;50.184;18.966;2022-09-09T04:30:25;8.00;;;7.30;;
57889;SDS011;43707;50.184;18.966;2022-09-09T04:32:52;7.70;;;7.00;;
57889;SDS011;43707;50.184;18.966;2022-09-09T04:35:18;13.40;;;7.30;;
57889;SDS011;43707;50.184;18.966;2022-09-09T04:37:45;9.00;;;7.60;;
57889;SDS011;43707;50.184;18.966;2022-09-09T04:40:11;8.60;;;7.70;;
57889;SDS011;43707;50.184;18.966;2022-09-09T04:42:36;8.80;;;8.00;;
57889;SDS011;43707;50.184;18.966;2022-09-09T04:45:02;8.70;;;8.00;;
57889;SDS011;43707;50.184;18.966;2022-09-09T04:47:28;10.70;;;6.90;;
57889;SDS011;43707;50.184;18.966;2022-09-09T04:49:53;13.90;;;7.10;;
57889;SDS011;43707;50.184;18.966;2022-09-09T04:52:19;9.60;;;7.90;;
57889;SDS011;43707;50.184;18.966;2022-09-09T04:54:45;10.60;;;8.30;;
57889;SDS011;43707;50.184;18.966;2022-09-09T04:57:11;9.20;;;8.40;;
57889;SDS011;43707;50.184;18.966;2022-09-09T04:59:37;9.30;;;8.20;;
57889;SDS011;43707;50.184;18.966;2022-09-09T05:02:02;9.80;;;9.00;;
57889;SDS011;43707;50.184;18.966;2022-09-09T05:04:29;10.00;;;9.00;;
57889;SDS011;43707;50.184;18.966;2022-09-09T05:06:54;9.30;;;8.50;;
57889;SDS011;43707;50.184;18.966;2022-09-09T05:09:20;10.50;;;9.60;;
57889;SDS011;43707;50.184;18.966;2022-09-09T05:11:46;11.20;;;9.40;;
57889;SDS011;43707;50.184;18.966;2022-09-09T05:14:11;10.60;;;9.50;;
57889;SDS011;43707;50.184;18.966;2022-09-09T05:16:37;10.00;;;9.10;;
57889;SDS011;43707;50.184;18.966;2022-09-09T05:19:02;9.70;;;8.70;;
57889;SDS011;43707;50.184;18.966;2022-09-09T05:21:28;15.30;;;10.70;;
57889;SDS011;43707;50.184;18.966;2022-09-09T05:23:55;12.30;;;11.00;;
57889;SDS011;43707;50.184;18.966;2022-09-09T05:26:22;13.20;;;11.80;;
57889;SDS011;43707;50.184;18.966;2022-09-09T05:28:48;11.20;;;10.00;;
57889;SDS011;43707;50.184;18.966;2022-09-09T05:31:14;11.30;;;10.40;;
57889;SDS011;43707;50.184;18.966;2022-09-09T05:33:41;11.10;;;10.10;;
57889;SDS011;43707;50.184;18.966;2022-09-09T05:36:18;15.80;;;10.70;;
57889;SDS011;43707;50.184;18.966;2022-09-09T05:38:45;10.20;;;9.30;;
57889;SDS011;43707;50.184;18.966;2022-09-09T05:41:11;12.40;;;8.80;;
57889;SDS011;43707;50.184;18.966;2022-09-09T05:43:37;9.60;;;8.70;;
57889;SDS011;43707;50.184;18.966;2022-09-09T05:46:04;10.10;;;9.10;;
57889;SDS011;43707;50.184;18.966;2022-09-09T05:48:31;8.60;;;7.80;;
57889;SDS011;43707;50.184;18.966;2022-09-09T05:50:58;8.20;;;7.40;;
57889;SDS011;43707;50.184;18.966;2022-09-09T05:53:24;8.30;;;7.30;;
57889;SDS011;43707;50.184;18.966;2022-09-09T05:55:50;8.30;;;7.50;;
57889;SDS011;43707;50.184;18.966;2022-09-09T05:58:25;9.10;;;7.10;;
57889;SDS011;43707;50.184;18.966;2022-09-09T06:00:51;7.60;;;6.90;;
57889;SDS011;43707;50.184;18.966;2022-09-09T06:03:16;8.30;;;7.40;;
57889;SDS011;43707;50.184;18.966;2022-09-09T06:05:42;7.80;;;7.00;;
57889;SDS011;43707;50.184;18.966;2022-09-09T06:08:07;9.40;;;6.70;;
57889;SDS011;43707;50.184;18.966;2022-09-09T06:10:33;10.70;;;7.90;;
57889;SDS011;43707;50.184;18.966;2022-09-09T06:12:59;12.70;;;8.10;;
57889;SDS011;43707;50.184;18.966;2022-09-09T06:15:24;9.50;;;8.50;;
57889;SDS011;43707;50.184;18.966;2022-09-09T06:17:56;9.20;;;7.80;;
57889;SDS011;43707;50.184;18.966;2022-09-09T06:20:21;13.30;;;8.30;;
57889;SDS011;43707;50.184;18.966;2022-09-09T06:22:47;8.20;;;7.40;;
57889;SDS011;43707;50.184;18.966;2022-09-09T06:25:13;9.80;;;8.40;;
57889;SDS011;43707;50.184;18.966;2022-09-09T06:27:39;11.70;;;7.90;;
57889;SDS011;43707;50.184;18.966;2022-09-09T06:30:05;9.30;;;7.80;;
57889;SDS011;43707;50.184;18.966;2022-09-09T06:32:32;8.20;;;7.40;;
57889;SDS011;43707;50.184;18.966;2022-09-09T06:34:59;10.20;;;7.10;;
57889;SDS011;43707;50.184;18.966;2022-09-09T06:37:26;12.60;;;7.60;;
57889;SDS011;43707;50.184;18.966;2022-09-09T06:39:52;8.50;;;7.50;;
57889;SDS011;43707;50.184;18.966;2022-09-09T06:42:19;12.50;;;8.00;;
57889;SDS011;43707;50.184;18.966;2022-09-09T06:44:45;13.20;;;7.30;;
57889;SDS011;43707;50.184;18.966;2022-09-09T06:47:11;7.90;;;7.00;;
57889;SDS011;43707;50.184;18.966;2022-09-09T06:49:36;7.40;;;6.80;;
57889;SDS011;43707;50.184;18.966;2022-09-09T06:52:01;11.90;;;7.50;;
57889;SDS011;43707;50.184;18.966;2022-09-09T06:54:27;7.70;;;6.20;;
57889;SDS011;43707;50.184;18.966;2022-09-09T06:56:52;7.80;;;6.40;;
57889;SDS011;43707;50.184;18.966;2022-09-09T06:59:18;11.70;;;6.80;;
57889;SDS011;43707;50.184;18.966;2022-09-09T07:01:43;6.90;;;6.10;;
57889;SDS011;43707;50.184;18.966;2022-09-09T07:04:09;8.30;;;6.10;;
57889;SDS011;43707;50.184;18.966;2022-09-09T07:06:43;6.90;;;6.10;;
57889;SDS011;43707;50.184;18.966;2022-09-09T07:09:10;7.50;;;6.60;;
57889;SDS011;43707;50.184;18.966;2022-09-09T07:11:41;9.70;;;7.20;;
57889;SDS011;43707;50.184;18.966;2022-09-09T07:14:11;10.60;;;6.50;;
57889;SDS011;43707;50.184;18.966;2022-09-09T07:16:43;6.30;;;5.60;;
57889;SDS011;43707;50.184;18.966;2022-09-09T07:19:10;7.60;;;6.30;;
57889;SDS011;43707;50.184;18.966;2022-09-09T07:21:36;7.10;;;5.80;;
57889;SDS011;43707;50.184;18.966;2022-09-09T07:24:01;6.80;;;5.10;;
57889;SDS011;43707;50.184;18.966;2022-09-09T07:26:28;6.40;;;5.60;;
57889;SDS011;43707;50.184;18.966;2022-09-09T07:28:54;6.40;;;5.80;;
57889;SDS011;43707;50.184;18.966;2022-09-09T07:31:26;5.90;;;5.30;;
57889;SDS011;43707;50.184;18.966;2022-09-09T07:33:56;4.80;;;4.30;;
57889;SDS011;43707;50.184;18.966;2022-09-09T07:36:25;8.00;;;5.20;;
57889;SDS011;43707;50.184;18.966;2022-09-09T07:38:54;5.80;;;4.60;;
57889;SDS011;43707;50.184;18.966;2022-09-09T07:41:31;6.90;;;5.30;;
57889;SDS011;43707;50.184;18.966;2022-09-09T07:43:59;10.20;;;4.80;;
57889;SDS011;43707;50.184;18.966;2022-09-09T07:46:28;8.40;;;4.90;;
57889;SDS011;43707;50.184;18.966;2022-09-09T07:48:54;7.50;;;4.40;;
57889;SDS011;43707;50.184;18.966;2022-09-09T07:51:22;4.30;;;3.60;;
57889;SDS011;43707;50.184;18.966;2022-09-09T07:54:00;5.90;;;4.50;;
57889;SDS011;43707;50.184;18.966;2022-09-09T07:56:27;4.80;;;4.30;;
57889;SDS011;43707;50.184;18.966;2022-09-09T07:58:53;4.30;;;3.00;;
57889;SDS011;43707;50.184;18.966;2022-09-09T08:03:51;6.10;;;3.20;;
57889;SDS011;43707;50.184;18.966;2022-09-09T08:06:18;5.00;;;3.30;;
57889;SDS011;43707;50.184;18.966;2022-09-09T08:08:44;5.60;;;3.50;;
57889;SDS011;43707;50.184;18.966;2022-09-09T08:11:11;4.10;;;3.20;;
57889;SDS011;43707;50.184;18.966;2022-09-09T08:13:41;4.70;;;3.50;;
57889;SDS011;43707;50.184;18.966;2022-09-09T08:16:09;4.60;;;3.00;;
57889;SDS011;43707;50.184;18.966;2022-09-09T08:18:42;5.80;;;2.40;;
57889;SDS011;43707;50.184;18.966;2022-09-09T08:21:12;5.30;;;2.70;;
57889;SDS011;43707;50.184;18.966;2022-09-09T08:23:43;5.20;;;2.60;;
57889;SDS011;43707;50.184;18.966;2022-09-09T08:26:17;4.30;;;2.80;;
57889;SDS011;43707;50.184;18.966;2022-09-09T08:28:47;3.10;;;2.30;;
57889;SDS011;43707;50.184;18.966;2022-09-09T08:31:17;3.80;;;3.20;;
57889;SDS011;43707;50.184;18.966;2022-09-09T08:33:46;3.60;;;2.60;;
57889;SDS011;43707;50.184;18.966;2022-09-09T08:36:13;4.20;;;3.20;;
57889;SDS011;43707;50.184;18.966;2022-09-09T08:38:46;3.40;;;2.80;;
57889;SDS011;43707;50.184;18.966;2022-09-09T08:43:47;3.60;;;2.40;;
57889;SDS011;43707;50.184;18.966;2022-09-09T08:46:20;3.40;;;2.30;;
57889;SDS011;43707;50.184;18.966;2022-09-09T08:48:58;4.70;;;2.30;;
57889;SDS011;43707;50.184;18.966;2022-09-09T08:51:29;4.00;;;1.80;;
57889;SDS011;43707;50.184;18.966;2022-09-09T08:53:56;3.70;;;2.00;;
57889;SDS011;43707;50.184;18.966;2022-09-09T08:56:25;4.10;;;2.00;;
57889;SDS011;43707;50.184;18.966;2022-09-09T08:58:52;4.00;;;2.40;;
57889;SDS011;43707;50.184;18.966;2022-09-09T09:06:43;2.40;;;2.20;;
57889;SDS011;43707;50.184;18.966;2022-09-09T09:09:31;2.30;;;2.10;;
57889;SDS011;43707;50.184;18.966;2022-09-09T09:12:15;2.30;;;1.50;;
57889;SDS011;43707;50.184;18.966;2022-09-09T09:14:42;5.40;;;2.40;;
57889;SDS011;43707;50.184;18.966;2022-09-09T09:17:27;3.30;;;2.00;;
57889;SDS011;43707;50.184;18.966;2022-09-09T09:20:02;6.70;;;1.90;;
57889;SDS011;43707;50.184;18.966;2022-09-09T09:24:59;2.80;;;1.80;;
57889;SDS011;43707;50.184;18.966;2022-09-09T09:27:34;4.30;;;1.70;;
57889;SDS011;43707;50.184;18.966;2022-09-09T09:30:02;2.70;;;1.60;;
57889;SDS011;43707;50.184;18.966;2022-09-09T09:32:38;3.10;;;1.60;;
57889;SDS011;43707;50.184;18.966;2022-09-09T09:35:06;2.80;;;2.00;;
57889;SDS011;43707;50.184;18.966;2022-09-09T09:37:35;2.70;;;1.60;;
57889;SDS011;43707;50.184;18.966;2022-09-09T09:40:17;5.90;;;1.80;;
57889;SDS011;43707;50.184;18.966;2022-09-09T09:48:03;5.80;;;1.80;;
57889;SDS011;43707;50.184;18.966;2022-09-09T09:50:30;2.10;;;1.30;;
57889;SDS011;43707;50.184;18.966;2022-09-09T09:52:57;4.70;;;1.60;;
57889;SDS011;43707;50.184;18.966;2022-09-09T09:55:25;1.70;;;1.40;;
57889;SDS011;43707;50.184;18.966;2022-09-09T09:57:51;4.20;;;1.50;;
57889;SDS011;43707;50.184;18.966;2022-09-09T10:00:22;2.00;;;1.40;;
57889;SDS011;43707;50.184;18.966;2022-09-09T10:02:48;1.90;;;1.60;;
57889;SDS011;43707;50.184;18.966;2022-09-09T10:05:29;4.80;;;1.50;;
57889;SDS011;43707;50.184;18.966;2022-09-09T10:13:22;3.10;;;1.60;;
57889;SDS011;43707;50.184;18.966;2022-09-09T10:33:10;1.60;;;0.90;;
57889;SDS011;43707;50.184;18.966;2022-09-09T10:35:52;1.90;;;1.10;;
57889;SDS011;43707;50.184;18.966;2022-09-09T10:38:40;3.80;;;1.20;;
57889;SDS011;43707;50.184;18.966;2022-09-09T10:55:41;2.40;;;1.10;;
57889;SDS011;43707;50.184;18.966;2022-09-09T10:58:10;2.70;;;1.00;;
57889;SDS011;43707;50.184;18.966;2022-09-09T11:00:49;1.40;;;0.90;;
57889;SDS011;43707;50.184;18.966;2022-09-09T11:03:20;2.20;;;0.70;;
57889;SDS011;43707;50.184;18.966;2022-09-09T11:06:21;3.90;;;1.00;;
57889;SDS011;43707;50.184;18.966;2022-09-09T11:08:43;1.90;;;1.10;;
57889;SDS011;43707;50.184;18.966;2022-09-09T11:11:19;2.40;;;1.50;;
57889;SDS011;43707;50.184;18.966;2022-09-09T11:16:56;3.20;;;1.10;;
57889;SDS011;43707;50.184;18.966;2022-09-09T11:19:28;2.60;;;1.00;;
57889;SDS011;43707;50.184;18.966;2022-09-09T11:21:56;0.70;;;0.60;;
57889;SDS011;43707;50.184;18.966;2022-09-09T11:24:36;1.90;;;0.70;;
57889;SDS011;43707;50.184;18.966;2022-09-09T11:35:41;1.10;;;0.50;;
57889;SDS011;43707;50.184;18.966;2022-09-09T11:41:01;1.70;;;0.90;;
57889;SDS011;43707;50.184;18.966;2022-09-09T11:46:10;0.90;;;0.70;;
57889;SDS011;43707;50.184;18.966;2022-09-09T11:48:41;0.70;;;0.60;;
57889;SDS011;43707;50.184;18.966;2022-09-09T11:51:12;1.60;;;0.60;;
57889;SDS011;43707;50.184;18.966;2022-09-09T11:53:53;0.80;;;0.60;;
57889;SDS011;43707;50.184;18.966;2022-09-09T11:56:48;0.80;;;0.70;;
57889;SDS011;43707;50.184;18.966;2022-09-09T12:01:50;2.60;;;0.60;;
57889;SDS011;43707;50.184;18.966;2022-09-09T12:09:49;2.40;;;0.60;;
57889;SDS011;43707;50.184;18.966;2022-09-09T12:17:37;2.90;;;0.80;;
57889;SDS011;43707;50.184;18.966;2022-09-09T12:20:21;1.70;;;0.70;;
57889;SDS011;43707;50.184;18.966;2022-09-09T12:34:10;1.90;;;0.60;;
57889;SDS011;43707;50.184;18.966;2022-09-09T12:36:39;1.20;;;0.70;;
57889;SDS011;43707;50.184;18.966;2022-09-09T12:39:15;0.60;;;0.60;;
57889;SDS011;43707;50.184;18.966;2022-09-09T12:41:50;2.60;;;0.60;;
57889;SDS011;43707;50.184;18.966;2022-09-09T12:44:21;2.40;;;0.60;;
57889;SDS011;43707;50.184;18.966;2022-09-09T12:46:48;1.30;;;0.70;;
57889;SDS011;43707;50.184;18.966;2022-09-09T12:49:47;1.10;;;0.60;;
57889;SDS011;43707;50.184;18.966;2022-09-09T12:52:07;1.10;;;0.60;;
57889;SDS011;43707;50.184;18.966;2022-09-09T12:54:36;1.60;;;0.70;;
57889;SDS011;43707;50.184;18.966;2022-09-09T12:57:02;1.80;;;0.60;;
57889;SDS011;43707;50.184;18.966;2022-09-09T12:59:35;1.30;;;0.90;;
57889;SDS011;43707;50.184;18.966;2022-09-09T13:02:11;1.90;;;0.70;;
57889;SDS011;43707;50.184;18.966;2022-09-09T13:04:41;2.30;;;0.90;;
57889;SDS011;43707;50.184;18.966;2022-09-09T13:07:07;1.30;;;1.00;;
57889;SDS011;43707;50.184;18.966;2022-09-09T13:09:35;1.80;;;1.20;;
57889;SDS011;43707;50.184;18.966;2022-09-09T13:12:00;2.80;;;1.00;;
57889;SDS011;43707;50.184;18.966;2022-09-09T13:27:31;1.30;;;0.70;;
57889;SDS011;43707;50.184;18.966;2022-09-09T13:29:59;2.00;;;0.70;;
57889;SDS011;43707;50.184;18.966;2022-09-09T13:32:26;3.80;;;1.40;;
57889;SDS011;43707;50.184;18.966;2022-09-09T13:37:42;2.60;;;1.00;;
57889;SDS011;43707;50.184;18.966;2022-09-09T13:40:15;1.70;;;1.20;;
57889;SDS011;43707;50.184;18.966;2022-09-09T13:42:43;2.80;;;1.20;;
57889;SDS011;43707;50.184;18.966;2022-09-09T13:45:19;2.60;;;1.30;;
57889;SDS011;43707;50.184;18.966;2022-09-09T13:47:45;1.40;;;0.80;;
57889;SDS011;43707;50.184;18.966;2022-09-09T13:50:24;2.50;;;0.80;;
57889;SDS011;43707;50.184;18.966;2022-09-09T13:52:53;1.50;;;0.90;;
57889;SDS011;43707;50.184;18.966;2022-09-09T13:55:21;2.20;;;0.70;;
57889;SDS011;43707;50.184;18.966;2022-09-09T14:00:28;2.30;;;0.90;;
57889;SDS011;43707;50.184;18.966;2022-09-09T14:02:56;1.60;;;0.70;;
57889;SDS011;43707;50.184;18.966;2022-09-09T14:05:21;1.10;;;1.00;;
57889;SDS011;43707;50.184;18.966;2022-09-09T14:07:47;1.60;;;0.80;;
57889;SDS011;43707;50.184;18.966;2022-09-09T14:10:13;2.60;;;1.30;;
57889;SDS011;43707;50.184;18.966;2022-09-09T14:12:39;0.80;;;0.70;;
57889;SDS011;43707;50.184;18.966;2022-09-09T14:15:05;1.50;;;0.70;;
57889;SDS011;43707;50.184;18.966;2022-09-09T14:17:32;1.30;;;0.90;;
57889;SDS011;43707;50.184;18.966;2022-09-09T14:19:58;1.20;;;0.80;;
57889;SDS011;43707;50.184;18.966;2022-09-09T14:22:23;1.10;;;0.50;;
57889;SDS011;43707;50.184;18.966;2022-09-09T14:24:51;1.50;;;0.70;;
57889;SDS011;43707;50.184;18.966;2022-09-09T14:27:17;4.40;;;0.80;;
57889;SDS011;43707;50.184;18.966;2022-09-09T14:29:43;1.10;;;0.80;;
57889;SDS011;43707;50.184;18.966;2022-09-09T14:32:09;2.30;;;0.90;;
57889;SDS011;43707;50.184;18.966;2022-09-09T14:34:35;1.80;;;0.80;;
57889;SDS011;43707;50.184;18.966;2022-09-09T14:37:01;3.40;;;1.20;;
57889;SDS011;43707;50.184;18.966;2022-09-09T14:39:27;5.40;;;1.20;;
57889;SDS011;43707;50.184;18.966;2022-09-09T14:41:52;1.20;;;0.80;;
57889;SDS011;43707;50.184;18.966;2022-09-09T14:44:18;1.50;;;0.80;;
57889;SDS011;43707;50.184;18.966;2022-09-09T14:46:43;2.00;;;1.10;;
57889;SDS011;43707;50.184;18.966;2022-09-09T14:49:09;1.40;;;0.90;;
57889;SDS011;43707;50.184;18.966;2022-09-09T14:51:38;1.40;;;0.90;;
57889;SDS011;43707;50.184;18.966;2022-09-09T14:54:03;1.90;;;0.70;;
57889;SDS011;43707;50.184;18.966;2022-09-09T14:56:30;2.30;;;0.80;;
57889;SDS011;43707;50.184;18.966;2022-09-09T14:58:57;1.90;;;0.70;;
57889;SDS011;43707;50.184;18.966;2022-09-09T15:01:26;1.60;;;0.80;;
57889;SDS011;43707;50.184;18.966;2022-09-09T15:03:58;1.40;;;0.80;;
57889;SDS011;43707;50.184;18.966;2022-09-09T15:06:26;2.00;;;0.80;;
57889;SDS011;43707;50.184;18.966;2022-09-09T15:08:54;1.50;;;0.80;;
57889;SDS011;43707;50.184;18.966;2022-09-09T15:11:23;2.50;;;0.60;;
57889;SDS011;43707;50.184;18.966;2022-09-09T15:13:50;2.80;;;0.90;;
57889;SDS011;43707;50.184;18.966;2022-09-09T15:16:21;2.90;;;0.90;;
57889;SDS011;43707;50.184;18.966;2022-09-09T15:18:50;1.90;;;0.70;;
57889;SDS011;43707;50.184;18.966;2022-09-09T15:21:17;2.10;;;0.90;;
57889;SDS011;43707;50.184;18.966;2022-09-09T15:23:45;1.80;;;0.70;;
57889;SDS011;43707;50.184;18.966;2022-09-09T15:26:12;2.60;;;0.60;;
57889;SDS011;43707;50.184;18.966;2022-09-09T15:28:41;2.10;;;0.70;;
57889;SDS011;43707;50.184;18.966;2022-09-09T15:31:12;3.20;;;0.70;;
57889;SDS011;43707;50.184;18.966;2022-09-09T15:33:47;1.20;;;0.70;;
57889;SDS011;43707;50.184;18.966;2022-09-09T15:36:21;1.50;;;0.60;;
57889;SDS011;43707;50.184;18.966;2022-09-09T15:38:47;1.80;;;1.50;;
57889;SDS011;43707;50.184;18.966;2022-09-09T15:41:14;1.40;;;0.80;;
57889;SDS011;43707;50.184;18.966;2022-09-09T15:43:46;1.10;;;0.90;;
57889;SDS011;43707;50.184;18.966;2022-09-09T15:48:44;2.30;;;1.10;;
57889;SDS011;43707;50.184;18.966;2022-09-09T15:51:10;2.60;;;1.00;;
57889;SDS011;43707;50.184;18.966;2022-09-09T15:53:36;3.30;;;1.00;;
57889;SDS011;43707;50.184;18.966;2022-09-09T15:56:04;5.80;;;0.90;;
57889;SDS011;43707;50.184;18.966;2022-09-09T15:58:32;1.00;;;0.90;;
57889;SDS011;43707;50.184;18.966;2022-09-09T16:01:04;4.30;;;1.30;;
57889;SDS011;43707;50.184;18.966;2022-09-09T16:03:35;3.50;;;1.00;;
57889;SDS011;43707;50.184;18.966;2022-09-09T16:06:07;1.50;;;1.40;;
57889;SDS011;43707;50.184;18.966;2022-09-09T16:11:13;1.10;;;0.80;;
57889;SDS011;43707;50.184;18.966;2022-09-09T16:13:41;1.20;;;1.00;;
57889;SDS011;43707;50.184;18.966;2022-09-09T16:16:08;2.70;;;1.50;;
57889;SDS011;43707;50.184;18.966;2022-09-09T16:18:36;2.20;;;1.10;;
57889;SDS011;43707;50.184;18.966;2022-09-09T16:21:03;3.00;;;1.20;;
57889;SDS011;43707;50.184;18.966;2022-09-09T16:23:30;4.40;;;1.60;;
57889;SDS011;43707;50.184;18.966;2022-09-09T16:25:57;2.00;;;1.40;;
57889;SDS011;43707;50.184;18.966;2022-09-09T16:28:23;1.60;;;1.30;;
57889;SDS011;43707;50.184;18.966;2022-09-09T16:30:48;1.90;;;1.00;;
57889;SDS011;43707;50.184;18.966;2022-09-09T16:33:14;3.30;;;1.20;;
57889;SDS011;43707;50.184;18.966;2022-09-09T16:35:41;1.90;;;1.30;;
57889;SDS011;43707;50.184;18.966;2022-09-09T16:38:06;2.90;;;1.40;;
57889;SDS011;43707;50.184;18.966;2022-09-09T16:40:35;5.80;;;1.60;;
57889;SDS011;43707;50.184;18.966;2022-09-09T16:43:01;4.90;;;1.00;;
57889;SDS011;43707;50.184;18.966;2022-09-09T16:45:27;3.60;;;1.40;;
57889;SDS011;43707;50.184;18.966;2022-09-09T16:47:53;1.40;;;1.10;;
57889;SDS011;43707;50.184;18.966;2022-09-09T16:50:18;1.50;;;1.10;;
57889;SDS011;43707;50.184;18.966;2022-09-09T16:52:44;2.50;;;1.50;;
57889;SDS011;43707;50.184;18.966;2022-09-09T16:55:10;2.80;;;1.80;;
57889;SDS011;43707;50.184;18.966;2022-09-09T16:57:35;2.60;;;2.10;;
57889;SDS011;43707;50.184;18.966;2022-09-09T17:00:01;7.90;;;2.50;;
57889;SDS011;43707;50.184;18.966;2022-09-09T17:02:29;3.30;;;1.90;;
57889;SDS011;43707;50.184;18.966;2022-09-09T17:04:55;2.70;;;2.40;;
57889;SDS011;43707;50.184;18.966;2022-09-09T17:07:20;4.20;;;2.40;;
57889;SDS011;43707;50.184;18.966;2022-09-09T17:09:47;3.00;;;2.00;;
57889;SDS011;43707;50.184;18.966;2022-09-09T17:12:13;3.00;;;2.30;;
57889;SDS011;43707;50.184;18.966;2022-09-09T17:14:39;2.20;;;1.90;;
57889;SDS011;43707;50.184;18.966;2022-09-09T17:17:05;5.20;;;2.90;;
57889;SDS011;43707;50.184;18.966;2022-09-09T17:19:30;3.50;;;2.50;;
57889;SDS011;43707;50.184;18.966;2022-09-09T17:21:56;3.50;;;2.40;;